Terminal Aerodrome Forecast
Issued by NWS

Home | Current Version | Previous Version | Text Only | Print | Product List | Glossary On
Versions: 1 2 3 4 5 6 7 8 9 10 11 12 13 14 15 16 17 18 19 20 21 22 23 24 25 26 27 28 29 30 31 32 33 34 35 36 37 38 39 40
000
FTUS43 KDMX 230525
TAFFOD
TAF
KFOD 230525Z 2306/2406 19012KT 5SM BR SCT004 BKN008 OVC014
      TEMPO 2306/2308 6SM BR BKN008 BKN014
     FM231000 19009KT 3SM -DZ BR BKN004 BKN012
     FM231400 34007KT 4SM -DZ BR BKN007 OVC012
     FM232000 34014KT 6SM BR SCT010 BKN015=

USA.gov is the U.S. government's official web portal to all federal, state and local government web resources and services.